Hindostan Falls, Indiana
Current Conditions -  °F | °C
As of 7:35 AM on Wednesday 22 Oct 2014 (Local Time) from KDCY Reporting Station
Clear Clear  
Wind Chill: 38°   Ceiling: Unl
Heat Index: 38°   Visibility: 7mi
Dew Point: 38°   Wind: 3mph
Humidity: 100%   Direction: 10°N
Pressure: 30.3"   Gusts: NA
Location:  38.6262°N, 86.7615°W
Report Text: KDCY 221235Z AUTO 01003KT 7SM CLR 03/03 A3030 RMK AO2 T00320032
Loading
Personal Weather Stations






























Interactive Weather Map
Tropical Storm Tracking
New forecast layout! Learn more

10-Day Weather Forecast

Advertisements
Track Severe Weather on mobile